createdAt,value
2023-01-19T00:02:26.264Z,11.61
2023-01-19T00:05:15.195Z,11.56
2023-01-19T00:08:14.990Z,11.53
2023-01-19T00:11:03.351Z,11.61
2023-01-19T00:13:52.113Z,11.39
2023-01-19T00:16:39.851Z,11.33
2023-01-19T00:19:28.633Z,11.41
2023-01-19T00:22:16.355Z,11.67
2023-01-19T00:25:04.549Z,11.61
2023-01-19T00:27:52.159Z,11.46
2023-01-19T00:30:40.498Z,11.31
2023-01-19T00:33:28.209Z,11.22
2023-01-19T00:36:16.872Z,11.16
2023-01-19T00:39:04.799Z,11.21
2023-01-19T00:42:10.735Z,11.23
2023-01-19T00:44:58.716Z,11.25
2023-01-19T00:47:47.857Z,11.17
2023-01-19T00:50:35.542Z,10.91
2023-01-19T00:53:23.253Z,11.13
2023-01-19T00:56:10.926Z,10.95
2023-01-19T00:58:58.743Z,11.22
2023-01-19T01:01:46.695Z,11.50
2023-01-19T01:04:36.669Z,11.29
2023-01-19T01:07:24.989Z,11.21
2023-01-19T01:10:17.010Z,10.93
2023-01-19T01:13:21.301Z,10.79
2023-01-19T01:16:14.523Z,10.68
2023-01-19T01:19:02.485Z,10.46
2023-01-19T01:21:51.410Z,10.30
2023-01-19T01:24:40.041Z,10.18
2023-01-19T01:27:29.285Z,10.38
2023-01-19T01:30:17.617Z,10.22
2023-01-19T01:33:05.319Z,10.34
2023-01-19T01:35:53.233Z,10.19
2023-01-19T01:38:41.828Z,10.00
2023-01-19T01:41:29.851Z,9.77
2023-01-19T01:44:53.587Z,9.64
2023-01-19T01:47:47.278Z,9.64
2023-01-19T01:50:38.721Z,9.74
2023-01-19T01:53:28.793Z,9.48
2023-01-19T01:56:21.942Z,9.22
2023-01-19T01:59:18.260Z,9.05
2023-01-19T02:02:30.256Z,8.66
2023-01-19T02:05:39.197Z,8.73
2023-01-19T02:08:57.770Z,8.41
2023-01-19T02:12:07.455Z,8.68
2023-01-19T02:15:02.838Z,8.66
2023-01-19T02:17:52.995Z,8.59
2023-01-19T02:20:45.691Z,8.49
2023-01-19T02:24:00.682Z,8.19
2023-01-19T02:26:51.383Z,8.26
2023-01-19T02:29:40.097Z,8.12
2023-01-19T02:32:28.349Z,8.10
2023-01-19T02:35:16.464Z,7.95
2023-01-19T02:38:05.259Z,7.89
2023-01-19T02:40:55.851Z,8.00
2023-01-19T02:43:45.171Z,8.05
2023-01-19T02:46:33.670Z,8.06
2023-01-19T02:49:21.414Z,8.19
2023-01-19T02:52:17.970Z,8.48
2023-01-19T02:55:20.043Z,8.60
2023-01-19T02:58:50.675Z,8.87
2023-01-19T03:02:01.558Z,9.10
2023-01-19T03:05:18.200Z,8.80
2023-01-19T03:08:38.134Z,8.75
2023-01-19T03:11:33.999Z,8.61
2023-01-19T03:14:25.435Z,8.75
2023-01-19T03:17:16.213Z,8.64
2023-01-19T03:20:06.400Z,8.27
2023-01-19T03:23:01.004Z,8.27
2023-01-19T03:25:51.486Z,8.24
2023-01-19T03:28:42.500Z,8.04
2023-01-19T03:31:33.473Z,7.87
2023-01-19T03:34:24.246Z,7.87
2023-01-19T03:37:14.604Z,7.83
2023-01-19T03:40:02.412Z,7.54
2023-01-19T03:42:50.755Z,7.52
2023-01-19T03:45:40.056Z,7.56
2023-01-19T03:48:27.872Z,7.68
2023-01-19T03:51:16.922Z,7.89
2023-01-19T03:54:05.850Z,7.91
2023-01-19T03:56:53.510Z,7.97
2023-01-19T03:59:41.208Z,8.03
2023-01-19T04:02:28.889Z,8.07
2023-01-19T04:05:16.500Z,7.97
2023-01-19T04:08:04.204Z,8.21
2023-01-19T04:10:51.827Z,8.68
2023-01-19T04:13:39.599Z,9.33
2023-01-19T04:16:27.432Z,9.25
2023-01-19T04:19:15.341Z,9.54
2023-01-19T04:22:03.091Z,11.27
2023-01-19T04:24:51.056Z,11.16
2023-01-19T04:27:38.723Z,11.12
2023-01-19T04:30:27.930Z,11.49
2023-01-19T04:33:15.687Z,11.56
2023-01-19T04:36:04.371Z,11.00
2023-01-19T04:38:52.121Z,10.60
2023-01-19T04:41:39.831Z,10.77
2023-01-19T04:44:28.686Z,10.76
2023-01-19T04:47:16.390Z,10.72
2023-01-19T04:50:06.691Z,11.24
2023-01-19T04:52:54.267Z,11.35
2023-01-19T04:55:42.210Z,11.36
2023-01-19T04:58:29.854Z,11.29
2023-01-19T05:01:17.689Z,11.53
2023-01-19T05:04:07.264Z,12.39
2023-01-19T05:06:54.879Z,12.45
2023-01-19T05:09:42.610Z,12.18
2023-01-19T05:12:30.264Z,12.06
2023-01-19T05:15:18.165Z,11.95
2023-01-19T05:18:05.888Z,11.62
2023-01-19T05:20:56.182Z,11.20
2023-01-19T05:23:43.920Z,11.35
2023-01-19T05:26:31.645Z,11.42
2023-01-19T05:29:19.312Z,12.64
2023-01-19T05:32:07.090Z,12.95
2023-01-19T05:34:54.865Z,12.95
2023-01-19T05:37:42.583Z,12.60
2023-01-19T05:40:30.285Z,12.61
2023-01-19T05:43:17.925Z,12.36
2023-01-19T05:46:05.852Z,12.09
2023-01-19T05:48:53.478Z,11.79
2023-01-19T05:51:45.762Z,11.64
2023-01-19T05:54:33.485Z,11.69
2023-01-19T05:57:23.005Z,11.27
2023-01-19T06:00:11.453Z,11.01
2023-01-19T06:03:04.047Z,10.98
2023-01-19T06:05:52.653Z,10.71
2023-01-19T06:08:45.331Z,10.72
2023-01-19T06:11:38.699Z,11.66
2023-01-19T06:14:28.744Z,11.90
2023-01-19T06:17:18.638Z,11.75
2023-01-19T06:20:07.338Z,11.79
2023-01-19T06:22:58.016Z,11.79
2023-01-19T06:25:45.638Z,11.63
2023-01-19T06:28:33.316Z,11.38
2023-01-19T06:31:21.348Z,10.98
2023-01-19T06:34:10.371Z,10.89
2023-01-19T06:36:58.766Z,10.82
2023-01-19T06:39:46.478Z,10.73
2023-01-19T06:42:39.257Z,10.77
2023-01-19T06:45:28.006Z,10.82
2023-01-19T06:48:16.006Z,10.79
2023-01-19T06:51:03.711Z,10.91
2023-01-19T06:53:51.497Z,11.06
2023-01-19T06:56:39.188Z,10.99
2023-01-19T06:59:26.958Z,11.00
2023-01-19T07:02:26.542Z,11.18
2023-01-19T07:05:15.771Z,11.19
2023-01-19T07:08:04.253Z,11.31
2023-01-19T07:11:25.006Z,11.26
2023-01-19T07:14:01.063Z,11.38
2023-01-19T07:16:48.749Z,11.41
2023-01-19T07:19:36.923Z,11.41
2023-01-19T07:22:26.743Z,11.49
2023-01-19T07:25:14.875Z,11.70
2023-01-19T07:28:02.865Z,11.68
2023-01-19T07:30:55.336Z,11.45
2023-01-19T07:33:43.184Z,11.88
2023-01-19T07:36:30.852Z,11.93
2023-01-19T07:39:18.620Z,11.98
2023-01-19T07:42:07.461Z,12.06
2023-01-19T07:44:57.199Z,12.09
2023-01-19T07:47:45.682Z,12.57
2023-01-19T07:50:34.789Z,13.19
2023-01-19T07:53:22.760Z,13.47
2023-01-19T07:56:11.022Z,13.82
2023-01-19T07:58:58.731Z,14.23
2023-01-19T08:01:46.592Z,14.45
2023-01-19T08:04:36.459Z,14.38
2023-01-19T08:07:24.310Z,14.19
2023-01-19T08:10:13.693Z,14.11
2023-01-19T08:13:01.646Z,14.42
2023-01-19T08:15:51.734Z,14.48
2023-01-19T08:18:39.950Z,14.92
2023-01-19T08:21:30.295Z,14.59
2023-01-19T08:24:21.571Z,14.92
2023-01-19T08:27:11.245Z,14.84
2023-01-19T08:29:59.386Z,14.83
2023-01-19T08:32:47.023Z,15.01
2023-01-19T08:35:39.795Z,15.31
2023-01-19T08:38:27.466Z,15.59
2023-01-19T08:41:16.723Z,15.93
2023-01-19T08:44:04.542Z,16.24
2023-01-19T08:46:52.052Z,16.52
2023-01-19T08:49:42.253Z,16.52
2023-01-19T08:52:32.907Z,16.63
2023-01-19T08:55:21.013Z,16.81
2023-01-19T08:58:11.996Z,17.13
2023-01-19T09:01:02.596Z,17.38
2023-01-19T09:03:52.201Z,17.47
2023-01-19T09:06:39.896Z,17.28
2023-01-19T09:09:30.860Z,17.59
2023-01-19T09:12:18.741Z,17.74
2023-01-19T09:15:10.958Z,18.11
2023-01-19T09:17:59.002Z,18.23
2023-01-19T09:20:49.153Z,18.84
2023-01-19T09:23:36.834Z,18.98
2023-01-19T09:26:24.695Z,19.15
2023-01-19T09:29:12.307Z,18.77
2023-01-19T09:32:00.127Z,19.25
2023-01-19T09:34:48.225Z,19.38
2023-01-19T09:37:38.688Z,19.76
2023-01-19T09:40:26.716Z,19.69
2023-01-19T09:43:33.051Z,20.03
2023-01-19T09:46:24.799Z,19.73
2023-01-19T09:49:17.182Z,19.61
2023-01-19T09:52:04.792Z,19.42
2023-01-19T09:54:57.902Z,19.25
2023-01-19T09:57:45.693Z,19.43
2023-01-19T10:00:33.425Z,19.88
2023-01-19T10:03:23.049Z,19.72
2023-01-19T10:06:14.209Z,19.79
2023-01-19T10:09:18.958Z,20.00
2023-01-19T10:12:27.436Z,20.13
2023-01-19T10:15:26.729Z,19.56
2023-01-19T10:18:35.208Z,19.78
2023-01-19T10:21:25.886Z,19.78
2023-01-19T10:24:28.832Z,20.00
2023-01-19T10:27:19.266Z,20.19
2023-01-19T10:30:08.838Z,20.59
2023-01-19T10:32:56.668Z,20.75
2023-01-19T10:35:45.297Z,20.76
2023-01-19T10:38:34.961Z,20.80
2023-01-19T10:41:31.943Z,21.20
2023-01-19T10:44:35.422Z,21.13
2023-01-19T10:47:34.871Z,21.13
2023-01-19T10:50:32.050Z,21.40
2023-01-19T10:53:22.919Z,21.52
2023-01-19T10:56:38.165Z,21.42
2023-01-19T10:59:48.920Z,21.46
2023-01-19T11:02:36.751Z,21.53
2023-01-19T11:05:27.789Z,21.58
2023-01-19T11:08:30.938Z,21.16
2023-01-19T11:11:23.801Z,21.33
2023-01-19T11:14:17.760Z,21.33
2023-01-19T11:17:05.514Z,21.25
2023-01-19T11:19:56.765Z,21.22
2023-01-19T11:22:44.618Z,21.31
2023-01-19T11:25:34.733Z,21.33
2023-01-19T11:28:44.191Z,20.58
2023-01-19T11:31:35.754Z,20.75
2023-01-19T11:34:25.455Z,20.42
2023-01-19T11:37:19.518Z,20.64
2023-01-19T11:40:19.322Z,20.53
2023-01-19T11:43:20.102Z,20.71
2023-01-19T11:46:15.664Z,20.55
2023-01-19T11:49:15.724Z,20.56
2023-01-19T11:52:22.733Z,20.55
2023-01-19T11:55:25.676Z,20.56
2023-01-19T11:58:16.743Z,20.62
2023-01-19T12:01:06.737Z,20.46
2023-01-19T12:04:18.088Z,20.41
2023-01-19T12:07:10.869Z,20.35
2023-01-19T12:10:20.076Z,20.25
2023-01-19T12:13:18.932Z,20.35
2023-01-19T12:16:09.304Z,20.24
2023-01-19T12:19:16.150Z,20.15
2023-01-19T12:22:05.460Z,19.92
2023-01-19T12:25:03.292Z,20.06
2023-01-19T12:27:54.437Z,19.87
2023-01-19T12:30:55.388Z,19.75
2023-01-19T12:33:43.104Z,20.01
2023-01-19T12:36:30.831Z,19.83
2023-01-19T12:39:23.804Z,19.61
2023-01-19T12:42:15.405Z,19.33
2023-01-19T12:45:08.157Z,19.33
2023-01-19T12:47:56.887Z,19.37
2023-01-19T12:50:46.913Z,19.17
2023-01-19T12:53:34.659Z,19.36
2023-01-19T12:56:31.165Z,19.40
2023-01-19T12:59:25.649Z,19.32
2023-01-19T13:02:28.803Z,19.27
2023-01-19T13:05:50.976Z,19.33
2023-01-19T13:08:57.569Z,19.19
2023-01-19T13:12:22.684Z,19.32
2023-01-19T13:15:36.124Z,19.29
2023-01-19T13:18:31.062Z,19.21
2023-01-19T13:21:48.758Z,19.36
2023-01-19T13:25:07.497Z,19.32
2023-01-19T13:27:55.641Z,19.44
2023-01-19T13:30:59.592Z,19.40
2023-01-19T13:33:53.723Z,19.54
2023-01-19T13:36:45.771Z,19.57
2023-01-19T13:39:41.146Z,19.56
2023-01-19T13:42:42.172Z,19.46
2023-01-19T13:45:38.341Z,19.48
2023-01-19T13:48:26.230Z,19.30
2023-01-19T13:51:19.387Z,19.20
2023-01-19T13:54:17.885Z,19.23
2023-01-19T13:57:05.714Z,19.10
2023-01-19T14:00:06.849Z,19.03
2023-01-19T14:03:18.752Z,19.04
2023-01-19T14:06:06.676Z,18.99
2023-01-19T14:09:19.571Z,19.18
2023-01-19T14:12:15.860Z,18.71
2023-01-19T14:15:05.485Z,17.72
2023-01-19T14:18:14.505Z,16.69
2023-01-19T14:21:10.010Z,16.14
2023-01-19T14:24:19.962Z,15.30
2023-01-19T14:27:18.385Z,15.29
2023-01-19T14:30:25.356Z,14.93
2023-01-19T14:33:51.866Z,14.78
2023-01-19T14:36:42.241Z,14.34
2023-01-19T14:39:35.642Z,14.38
2023-01-19T14:42:31.125Z,14.29
2023-01-19T14:45:20.652Z,14.16
2023-01-19T14:48:24.707Z,14.05
2023-01-19T14:51:18.619Z,14.05
2023-01-19T14:54:06.897Z,13.87
2023-01-19T14:56:54.593Z,13.62
2023-01-19T14:59:42.817Z,13.79
2023-01-19T15:02:30.649Z,13.74
2023-01-19T15:08:42.583Z,13.48
2023-01-19T15:11:35.073Z,13.43
2023-01-19T15:14:23.043Z,13.39
2023-01-19T15:17:27.684Z,13.17
2023-01-19T15:20:21.288Z,13.21
2023-01-19T15:23:11.551Z,13.07
2023-01-19T15:26:04.687Z,12.98
2023-01-19T15:28:53.053Z,13.09
2023-01-19T15:31:41.719Z,12.91
2023-01-19T15:34:32.083Z,12.90
2023-01-19T15:37:19.852Z,13.02
2023-01-19T15:40:08.198Z,13.01
2023-01-19T15:42:55.930Z,12.90
2023-01-19T15:45:44.919Z,12.82
2023-01-19T15:48:32.872Z,12.75
2023-01-19T15:51:23.114Z,12.67
2023-01-19T15:54:17.094Z,12.63
2023-01-19T15:57:05.972Z,12.59
2023-01-19T15:59:53.656Z,12.55
2023-01-19T16:02:41.529Z,12.36
2023-01-19T16:05:41.993Z,12.26
2023-01-19T16:08:30.215Z,12.41
2023-01-19T16:11:19.105Z,12.43
2023-01-19T16:14:06.909Z,12.24
2023-01-19T16:16:54.599Z,11.97
2023-01-19T16:19:42.362Z,12.04
2023-01-19T16:22:30.043Z,11.87
2023-01-19T16:25:17.765Z,11.95
2023-01-19T16:28:05.557Z,11.83
2023-01-19T16:30:54.118Z,11.64
2023-01-19T16:33:41.970Z,11.63
2023-01-19T16:36:32.604Z,11.68
2023-01-19T16:39:23.278Z,11.64
2023-01-19T16:42:11.039Z,11.42
2023-01-19T16:44:59.023Z,11.38
2023-01-19T16:48:06.206Z,11.40
2023-01-19T16:51:06.269Z,11.33
2023-01-19T16:53:54.158Z,11.29
2023-01-19T16:56:44.954Z,11.34
2023-01-19T16:59:35.981Z,11.27
2023-01-19T17:02:23.674Z,11.11
2023-01-19T17:05:11.498Z,11.03
2023-01-19T17:07:59.413Z,11.15
2023-01-19T17:10:48.280Z,11.13
2023-01-19T17:13:36.184Z,11.18
2023-01-19T17:16:25.055Z,11.14
2023-01-19T17:19:18.769Z,11.13
2023-01-19T17:22:09.717Z,11.10
2023-01-19T17:24:57.394Z,10.94
2023-01-19T17:27:48.143Z,10.93
2023-01-19T17:30:35.900Z,11.06
2023-01-19T17:33:25.192Z,10.91
2023-01-19T17:36:22.650Z,10.98
2023-01-19T17:39:15.079Z,10.90
2023-01-19T17:42:02.900Z,10.95
2023-01-19T17:44:50.667Z,10.92
2023-01-19T17:47:38.937Z,10.85
2023-01-19T17:50:29.855Z,10.87
2023-01-19T17:53:17.654Z,10.95
2023-01-19T17:56:09.514Z,10.91
2023-01-19T17:58:58.478Z,11.07
2023-01-19T18:01:46.803Z,10.95
2023-01-19T18:04:38.144Z,10.95
2023-01-19T18:07:29.743Z,10.77
2023-01-19T18:10:20.775Z,10.54
2023-01-19T18:13:08.479Z,10.63
2023-01-19T18:16:03.637Z,10.63
2023-01-19T18:18:54.034Z,10.45
2023-01-19T18:21:41.728Z,10.64
2023-01-19T18:24:29.595Z,10.42
2023-01-19T18:27:17.804Z,10.50
2023-01-19T18:30:06.072Z,10.51
2023-01-19T18:32:53.893Z,10.49
2023-01-19T18:35:41.621Z,10.43
2023-01-19T18:38:29.511Z,10.34
2023-01-19T18:41:19.324Z,10.12
2023-01-19T18:44:07.058Z,10.27
2023-01-19T18:46:56.954Z,10.12
2023-01-19T18:49:45.185Z,10.13
2023-01-19T18:52:42.969Z,10.20
2023-01-19T18:55:33.718Z,10.09
2023-01-19T18:58:21.864Z,10.25
2023-01-19T19:01:32.717Z,10.08
2023-01-19T19:04:20.827Z,10.09
2023-01-19T19:07:11.401Z,10.12
2023-01-19T19:09:59.125Z,10.11
2023-01-19T19:12:48.437Z,10.07
2023-01-19T19:15:36.170Z,10.09
2023-01-19T19:18:24.156Z,9.87
2023-01-19T19:21:13.043Z,10.06
2023-01-19T19:24:00.904Z,10.08
2023-01-19T19:26:51.527Z,10.07
2023-01-19T19:29:39.312Z,10.26
2023-01-19T19:32:27.084Z,10.21
2023-01-19T19:35:18.815Z,10.00
2023-01-19T19:38:06.528Z,9.85
2023-01-19T19:40:57.520Z,9.89
2023-01-19T19:43:45.229Z,9.92
2023-01-19T19:46:32.915Z,9.84
2023-01-19T19:49:21.682Z,9.84
2023-01-19T19:52:09.214Z,9.79
2023-01-19T19:54:56.925Z,9.87
2023-01-19T19:57:47.940Z,9.89
2023-01-19T20:00:35.728Z,9.84
2023-01-19T20:03:27.138Z,9.98
2023-01-19T20:06:21.586Z,9.87
2023-01-19T20:09:14.381Z,9.83
2023-01-19T20:12:02.057Z,9.81
2023-01-19T20:14:50.897Z,9.85
2023-01-19T20:17:38.585Z,9.84
2023-01-19T20:20:26.639Z,9.77
2023-01-19T20:23:17.063Z,9.77
2023-01-19T20:26:07.436Z,9.54
2023-01-19T20:29:00.029Z,9.79
2023-01-19T20:31:51.128Z,9.74
2023-01-19T20:34:40.278Z,9.76
2023-01-19T20:37:28.214Z,9.64
2023-01-19T20:40:16.100Z,9.83
2023-01-19T20:43:03.885Z,9.79
2023-01-19T20:45:52.920Z,9.80
2023-01-19T20:48:40.825Z,9.66
2023-01-19T20:51:28.610Z,9.81
2023-01-19T20:54:18.413Z,9.65
2023-01-19T20:57:06.431Z,9.63
2023-01-19T20:59:54.351Z,9.71
2023-01-19T21:02:42.101Z,9.64
2023-01-19T21:05:29.818Z,9.68
2023-01-19T21:08:18.464Z,9.35
2023-01-19T21:11:06.398Z,9.41
2023-01-19T21:13:56.642Z,9.41
2023-01-19T21:16:44.504Z,9.39
2023-01-19T21:19:32.178Z,9.39
2023-01-19T21:22:22.051Z,9.25
2023-01-19T21:25:18.023Z,9.33
2023-01-19T21:28:17.074Z,9.45
2023-01-19T21:31:14.004Z,9.57
2023-01-19T21:34:01.739Z,9.52
2023-01-19T21:36:51.592Z,9.49
2023-01-19T21:39:39.322Z,9.41
2023-01-19T21:42:27.081Z,9.54
2023-01-19T21:45:15.215Z,9.60
2023-01-19T21:48:03.086Z,9.43
2023-01-19T21:50:57.722Z,9.47
2023-01-19T21:53:45.543Z,9.45
2023-01-19T21:56:34.450Z,9.48
2023-01-19T21:59:22.264Z,9.46
2023-01-19T22:02:12.790Z,9.43
2023-01-19T22:58:48.384Z,9.23
2023-01-19T23:01:41.136Z,9.35
2023-01-19T23:04:28.850Z,9.25
2023-01-19T23:07:16.602Z,9.14
2023-01-19T23:10:04.406Z,9.16
2023-01-19T23:12:52.199Z,9.19
2023-01-19T23:15:39.860Z,8.96
2023-01-19T23:18:28.258Z,9.05
2023-01-19T23:21:19.161Z,9.07
2023-01-19T23:24:07.081Z,9.05
2023-01-19T23:26:54.768Z,9.08
2023-01-19T23:29:42.471Z,8.93
2023-01-19T23:32:30.198Z,9.08
2023-01-19T23:35:17.861Z,9.13
2023-01-19T23:38:05.516Z,9.40
2023-01-19T23:40:56.695Z,9.29
2023-01-19T23:43:44.392Z,9.26
2023-01-19T23:46:32.243Z,9.07
2023-01-19T23:49:20.201Z,8.96
2023-01-19T23:52:07.928Z,9.07
2023-01-19T23:54:55.521Z,9.00
2023-01-19T23:57:45.497Z,8.98
